Time;durP1;ratioP1;P1;durP2;ratioP2;P2;SDS_P1;SDS_P2;PMS_P1;PMS_P2;Temp;Humidity;BMP_temperature;BMP_pressure;BME280_temperature;BME280_humidity;BME280_pressure;Samples;Min_cycle;Max_cycle;Signal;HPM_P1;HPM_P2
2022/01/07 00:01:06;;;;;;;18.08;3.70;;;0.10;99.90;;;;;;5081242;28;20040;-61
2022/01/07 00:03:32;;;;;;;17.08;4.00;;;0.10;99.90;;;;;;5079298;28;20500;-61
2022/01/07 00:05:59;;;;;;;11.18;2.97;;;0.10;99.90;;;;;;5080037;28;20036;-61
2022/01/07 00:08:25;;;;;;;20.08;3.72;;;0.10;99.90;;;;;;5071721;28;20087;-61
2022/01/07 00:10:51;;;;;;;23.88;4.03;;;0.20;99.90;;;;;;5073110;28;20040;-60
2022/01/07 00:13:16;;;;;;;19.15;3.72;;;0.20;99.90;;;;;;5075682;28;20447;-60
2022/01/07 00:15:42;;;;;;;18.52;3.97;;;0.20;99.90;;;;;;5081068;28;20775;-61
2022/01/07 00:18:08;;;;;;;19.60;4.45;;;0.20;99.90;;;;;;5067274;28;20035;-61
2022/01/07 00:20:35;;;;;;;18.17;3.72;;;0.20;99.90;;;;;;5069460;28;20044;-61
2022/01/07 00:23:00;;;;;;;17.92;3.80;;;0.10;99.90;;;;;;5059252;28;20091;-61
2022/01/07 00:25:26;;;;;;;11.60;3.53;;;0.20;99.90;;;;;;5067428;28;20048;-61
2022/01/07 00:27:52;;;;;;;13.75;3.00;;;0.20;99.90;;;;;;5063371;28;20042;-61
2022/01/07 00:30:19;;;;;;;14.57;3.42;;;0.20;99.90;;;;;;5066017;28;20459;-62
2022/01/07 00:32:45;;;;;;;13.82;3.22;;;0.20;99.90;;;;;;5062447;28;20104;-62
2022/01/07 00:35:12;;;;;;;10.50;2.70;;;0.20;99.90;;;;;;5055209;28;20514;-61
2022/01/07 00:37:38;;;;;;;16.98;4.07;;;0.20;99.90;;;;;;5056513;28;20381;-62
2022/01/07 00:40:06;;;;;;;13.15;3.38;;;0.20;99.90;;;;;;5060005;28;20044;-62
2022/01/07 00:42:32;;;;;;;15.80;3.15;;;0.20;99.90;;;;;;5060816;28;20041;-62
2022/01/07 00:44:58;;;;;;;16.70;4.30;;;0.20;99.90;;;;;;5061052;28;20108;-62
2022/01/07 00:47:24;;;;;;;26.10;3.20;;;0.30;99.90;;;;;;5061628;28;20048;-61
2022/01/07 00:49:50;;;;;;;16.85;3.35;;;0.30;99.90;;;;;;5066760;28;20412;-62
2022/01/07 00:52:15;;;;;;;12.13;3.10;;;0.30;99.90;;;;;;5064264;28;20040;-62
2022/01/07 00:54:41;;;;;;;14.75;3.67;;;0.30;99.90;;;;;;5054110;28;20735;-62
2022/01/07 00:57:07;;;;;;;24.30;3.53;;;0.40;99.90;;;;;;5063758;28;20056;-60
2022/01/07 00:59:33;;;;;;;15.27;3.85;;;0.40;99.90;;;;;;5064231;28;20044;-60
2022/01/07 01:01:58;;;;;;;12.77;3.33;;;0.40;99.90;;;;;;5062078;28;20033;-62
2022/01/07 01:04:24;;;;;;;17.75;4.10;;;0.40;99.90;;;;;;5061966;28;20127;-62
2022/01/07 01:06:49;;;;;;;12.75;2.72;;;0.40;99.90;;;;;;5063498;28;20064;-62
2022/01/07 01:09:15;;;;;;;20.23;3.10;;;0.40;99.90;;;;;;5048381;28;20044;-62
2022/01/07 01:11:41;;;;;;;16.65;3.85;;;0.40;99.90;;;;;;5062835;28;20408;-62
2022/01/07 01:14:07;;;;;;;20.92;4.70;;;0.40;99.90;;;;;;5061216;28;20399;-61
2022/01/07 01:16:33;;;;;;;18.92;3.55;;;0.30;99.90;;;;;;5062189;28;20044;-62
2022/01/07 01:18:59;;;;;;;21.20;3.40;;;0.30;99.90;;;;;;5062793;28;20089;-61
2022/01/07 01:21:25;;;;;;;16.38;3.42;;;0.30;99.90;;;;;;5065239;28;20727;-61
2022/01/07 01:23:50;;;;;;;21.17;3.72;;;0.30;99.90;;;;;;5060870;28;20036;-59
2022/01/07 01:26:20;;;;;;;20.70;3.35;;;0.30;99.90;;;;;;5067669;28;20044;-59
2022/01/07 01:28:46;;;;;;;21.20;3.83;;;0.40;99.90;;;;;;5054471;28;20497;-61
2022/01/07 01:31:15;;;;;;;11.70;3.25;;;0.40;99.90;;;;;;5061627;28;20101;-61
2022/01/07 01:33:40;;;;;;;9.52;2.85;;;0.40;99.90;;;;;;5064058;28;20511;-61
2022/01/07 01:36:08;;;;;;;14.43;3.40;;;0.30;99.90;;;;;;5067803;28;20114;-60
2022/01/07 01:38:34;;;;;;;9.40;3.00;;;0.30;99.90;;;;;;5056125;28;20045;-61
2022/01/07 01:41:00;;;;;;;8.43;3.28;;;0.30;99.90;;;;;;5063312;28;20097;-61
2022/01/07 01:43:26;;;;;;;15.40;3.10;;;0.30;99.90;;;;;;5057672;28;20040;-60
2022/01/07 01:45:51;;;;;;;16.95;3.25;;;0.30;99.90;;;;;;5064457;28;20036;-60
2022/01/07 01:48:18;;;;;;;15.40;3.55;;;0.40;99.90;;;;;;5060362;28;20032;-61
2022/01/07 01:50:44;;;;;;;16.17;3.50;;;0.40;99.90;;;;;;5064995;28;20044;-60
2022/01/07 01:53:15;;;;;;;16.67;4.00;;;0.40;99.90;;;;;;5060282;28;20033;-60
2022/01/07 01:55:41;;;;;;;10.88;3.53;;;0.40;99.90;;;;;;5067808;28;20083;-57
2022/01/07 01:58:07;;;;;;;15.60;3.55;;;0.30;99.90;;;;;;5063796;28;20086;-61
2022/01/07 02:00:34;;;;;;;13.93;4.70;;;0.40;99.90;;;;;;5056532;28;20040;-60
2022/01/07 02:02:59;;;;;;;19.50;4.00;;;0.30;99.90;;;;;;5052883;28;20040;-61
2022/01/07 02:05:26;;;;;;;13.23;2.80;;;0.30;99.90;;;;;;5052250;28;20092;-61
2022/01/07 02:07:53;;;;;;;15.73;3.50;;;0.30;99.90;;;;;;5055793;28;20075;-61
2022/01/07 02:10:19;;;;;;;17.13;3.70;;;0.30;99.90;;;;;;5059842;28;20123;-60
2022/01/07 02:12:45;;;;;;;17.38;3.72;;;0.30;99.90;;;;;;5059146;28;20040;-61
2022/01/07 02:15:13;;;;;;;13.77;2.97;;;0.30;99.90;;;;;;5066304;28;20157;-61
2022/01/07 02:17:42;;;;;;;14.25;3.13;;;0.30;99.90;;;;;;5060257;28;20407;-61
2022/01/07 02:20:08;;;;;;;17.50;3.30;;;0.30;99.90;;;;;;5065675;28;20043;-62
2022/01/07 02:22:34;;;;;;;9.15;2.60;;;0.40;99.90;;;;;;5056206;28;20048;-61
2022/01/07 02:25:00;;;;;;;12.00;3.22;;;0.30;99.90;;;;;;5058933;28;20567;-61
2022/01/07 02:27:25;;;;;;;13.85;2.83;;;0.40;99.90;;;;;;5060053;28;20051;-60
2022/01/07 02:29:52;;;;;;;8.68;2.28;;;0.40;99.90;;;;;;5065824;28;20036;-61
2022/01/07 02:32:18;;;;;;;12.55;2.72;;;0.40;99.90;;;;;;5062312;28;20042;-62
2022/01/07 02:34:45;;;;;;;16.48;2.58;;;0.40;99.90;;;;;;5065268;28;20481;-61
2022/01/07 02:37:12;;;;;;;9.15;2.92;;;0.40;99.90;;;;;;5058640;28;20272;-62
2022/01/07 02:39:39;;;;;;;13.85;2.47;;;0.50;99.90;;;;;;5055387;28;20044;-61
2022/01/07 02:42:05;;;;;;;12.23;2.53;;;0.50;99.90;;;;;;5057648;28;20044;-62
2022/01/07 02:44:30;;;;;;;11.02;2.05;;;0.50;99.90;;;;;;5061186;28;20046;-61
2022/01/07 02:46:56;;;;;;;7.90;2.50;;;0.50;99.90;;;;;;5062442;28;20037;-61
2022/01/07 02:49:22;;;;;;;8.57;1.73;;;0.50;99.90;;;;;;5062343;28;20045;-61
2022/01/07 02:51:47;;;;;;;8.50;1.83;;;0.50;99.90;;;;;;5059380;28;20504;-58
2022/01/07 02:54:14;;;;;;;4.15;2.30;;;0.50;99.90;;;;;;5061419;28;20040;-60
2022/01/07 02:56:39;;;;;;;7.18;1.70;;;0.50;99.90;;;;;;5062906;28;20116;-61
2022/01/07 02:59:08;;;;;;;4.65;2.03;;;0.50;99.90;;;;;;5052320;28;20048;-62
2022/01/07 03:01:35;;;;;;;5.38;2.08;;;0.50;99.90;;;;;;5055712;28;20041;-62
2022/01/07 03:04:01;;;;;;;9.27;2.15;;;0.50;99.90;;;;;;5062061;28;20094;-61
2022/01/07 03:06:27;;;;;;;10.38;2.25;;;0.60;99.90;;;;;;5062172;28;20044;-59
2022/01/07 03:08:53;;;;;;;9.38;2.22;;;0.60;99.90;;;;;;5048124;28;20028;-61
2022/01/07 03:11:20;;;;;;;10.02;2.20;;;0.50;99.90;;;;;;5058999;28;20061;-61
2022/01/07 03:13:45;;;;;;;6.50;2.17;;;0.50;99.90;;;;;;5059705;28;20075;-62
2022/01/07 03:16:11;;;;;;;8.35;2.10;;;0.50;99.90;;;;;;5064231;28;20076;-63
2022/01/07 03:18:37;;;;;;;7.65;2.35;;;0.50;99.90;;;;;;5060347;28;20043;-62
2022/01/07 03:21:03;;;;;;;14.70;3.00;;;0.40;99.90;;;;;;5063550;28;20388;-62
2022/01/07 03:23:30;;;;;;;7.82;2.75;;;0.40;99.90;;;;;;5060316;28;20044;-62
2022/01/07 03:25:56;;;;;;;11.63;2.53;;;0.40;99.90;;;;;;5068040;28;20416;-62
2022/01/07 03:28:22;;;;;;;14.50;3.53;;;0.40;99.90;;;;;;5063897;28;20039;-62
2022/01/07 03:30:48;;;;;;;13.80;2.83;;;0.40;99.90;;;;;;5065998;28;20043;-62
2022/01/07 03:33:13;;;;;;;8.65;2.80;;;0.40;99.90;;;;;;5057433;28;20119;-61
2022/01/07 03:35:39;;;;;;;9.23;2.28;;;0.40;99.90;;;;;;5057656;28;20449;-62
2022/01/07 03:38:06;;;;;;;9.60;2.78;;;0.50;99.90;;;;;;5057325;28;20493;-59
2022/01/07 03:40:32;;;;;;;8.98;3.53;;;0.50;99.90;;;;;;5055447;28;20135;-61
2022/01/07 03:42:57;;;;;;;13.25;3.40;;;0.40;99.90;;;;;;5059983;28;20112;-61
2022/01/07 03:45:24;;;;;;;9.82;2.70;;;0.50;99.90;;;;;;5066264;28;20040;-62
2022/01/07 03:47:51;;;;;;;8.63;2.85;;;0.50;99.90;;;;;;5060873;28;20068;-62
2022/01/07 03:50:22;;;;;;;13.35;3.03;;;0.40;99.90;;;;;;5064095;28;20115;-61
2022/01/07 03:52:48;;;;;;;10.85;2.72;;;0.50;99.90;;;;;;5050438;28;20036;-61
2022/01/07 03:55:17;;;;;;;8.57;2.53;;;0.50;99.90;;;;;;5069951;28;20127;-59
2022/01/07 03:57:43;;;;;;;7.47;2.72;;;0.50;99.90;;;;;;5056584;28;20606;-56
2022/01/07 04:00:15;;;;;;;14.25;3.45;;;0.50;99.90;;;;;;5060456;28;20770;-61
2022/01/07 04:02:42;;;;;;;15.57;2.92;;;0.50;99.90;;;;;;5060629;28;20554;-62
2022/01/07 04:05:08;;;;;;;6.00;2.70;;;0.50;99.90;;;;;;5066384;28;20033;-62
2022/01/07 04:07:34;;;;;;;9.15;2.58;;;0.50;99.90;;;;;;5055698;28;20080;-62
2022/01/07 04:10:00;;;;;;;10.48;2.83;;;0.40;99.90;;;;;;5054585;28;20071;-62
2022/01/07 04:12:26;;;;;;;7.95;2.83;;;0.50;99.90;;;;;;5061821;28;20048;-62
2022/01/07 04:15:04;;;;;;;13.05;2.75;;;0.50;99.90;;;;;;5065489;28;20044;-61
2022/01/07 04:17:30;;;;;;;8.20;2.63;;;0.50;99.90;;;;;;5057602;28;20048;-60
2022/01/07 04:19:55;;;;;;;15.65;3.28;;;0.50;99.90;;;;;;5052976;28;20035;-61
2022/01/07 04:22:21;;;;;;;10.98;3.03;;;0.40;99.90;;;;;;5058113;28;20037;-62
2022/01/07 04:24:46;;;;;;;12.30;2.85;;;0.40;99.90;;;;;;5051945;28;20120;-60
2022/01/07 04:27:12;;;;;;;10.60;2.88;;;0.40;99.90;;;;;;5062894;28;20044;-61
2022/01/07 04:29:37;;;;;;;11.93;3.63;;;0.40;99.90;;;;;;5059723;28;20484;-61
2022/01/07 04:32:05;;;;;;;13.57;3.30;;;0.30;99.90;;;;;;5057212;28;20090;-63
2022/01/07 04:34:30;;;;;;;11.13;3.13;;;0.30;99.90;;;;;;5056705;28;20147;-62
2022/01/07 04:36:56;;;;;;;10.52;2.97;;;0.30;99.90;;;;;;5064279;28;20120;-62
2022/01/07 04:39:22;;;;;;;12.25;2.92;;;0.30;99.90;;;;;;5055921;28;20467;-61
2022/01/07 04:41:47;;;;;;;6.53;2.58;;;0.30;99.90;;;;;;5062874;28;20625;-61
2022/01/07 04:44:13;;;;;;;10.82;2.88;;;0.30;99.90;;;;;;5063308;28;20036;-61
2022/01/07 04:46:38;;;;;;;10.65;2.70;;;0.30;99.90;;;;;;5066545;28;20056;-62
2022/01/07 04:49:04;;;;;;;7.50;3.03;;;0.30;99.90;;;;;;5064465;28;20040;-62
2022/01/07 04:51:30;;;;;;;11.70;3.95;;;0.30;99.90;;;;;;5065694;28;20500;-62
2022/01/07 04:53:55;;;;;;;8.52;2.65;;;0.30;99.90;;;;;;5065164;28;20067;-62
2022/01/07 04:56:21;;;;;;;13.95;3.78;;;0.30;99.90;;;;;;5068042;28;20071;-63
2022/01/07 04:58:46;;;;;;;7.50;2.78;;;0.30;99.90;;;;;;5061428;28;20477;-62
2022/01/07 05:01:12;;;;;;;12.20;3.22;;;0.30;99.90;;;;;;5061102;28;20075;-62
2022/01/07 05:03:38;;;;;;;8.10;2.80;;;0.40;99.90;;;;;;5059070;28;20459;-62
2022/01/07 05:08:47;;;;;;;10.27;3.58;;;0.30;99.90;;;;;;5053498;28;20037;-61
2022/01/07 05:11:13;;;;;;;13.65;3.40;;;0.30;99.90;;;;;;5060943;28;20098;-61
2022/01/07 05:13:38;;;;;;;8.38;3.40;;;0.30;99.90;;;;;;5055381;28;20063;-62
2022/01/07 05:16:05;;;;;;;14.27;3.55;;;0.30;99.90;;;;;;5064654;28;20040;-61
2022/01/07 05:18:31;;;;;;;13.43;3.65;;;0.30;99.90;;;;;;5060224;28;20045;-62
2022/01/07 05:20:56;;;;;;;11.20;3.47;;;0.30;99.90;;;;;;5064059;28;20040;-62
2022/01/07 05:23:23;;;;;;;18.05;3.33;;;0.30;99.90;;;;;;5060029;28;20036;-60
2022/01/07 05:25:49;;;;;;;10.68;3.65;;;0.20;99.90;;;;;;5067245;28;20128;-62
2022/01/07 05:28:15;;;;;;;13.52;3.85;;;0.20;99.90;;;;;;5061962;28;20152;-62
2022/01/07 05:30:40;;;;;;;9.88;3.50;;;0.20;99.90;;;;;;5064096;28;20052;-61
2022/01/07 05:33:06;;;;;;;12.70;3.78;;;0.20;99.90;;;;;;5060158;28;20029;-60
2022/01/07 05:35:32;;;;;;;9.85;3.10;;;0.10;99.90;;;;;;5060486;28;20412;-60
2022/01/07 05:37:57;;;;;;;12.95;3.65;;;0.10;99.90;;;;;;5056095;28;20459;-62
2022/01/07 05:40:23;;;;;;;13.90;3.95;;;0.10;99.90;;;;;;5051786;28;20052;-61
2022/01/07 05:42:49;;;;;;;7.20;3.08;;;0.20;99.90;;;;;;5055587;28;20121;-60
2022/01/07 05:45:14;;;;;;;7.20;2.88;;;0.20;99.90;;;;;;5041748;28;20702;-61
2022/01/07 05:47:40;;;;;;;8.98;3.22;;;0.20;99.90;;;;;;5054486;28;20802;-62
2022/01/07 05:50:07;;;;;;;6.10;2.85;;;0.20;99.90;;;;;;5055467;28;20124;-62
2022/01/07 05:52:32;;;;;;;10.57;4.15;;;0.20;99.90;;;;;;5057127;28;20094;-63
2022/01/07 05:54:58;;;;;;;12.48;3.30;;;0.30;99.90;;;;;;5056286;28;20032;-62
2022/01/07 05:57:23;;;;;;;16.27;3.88;;;0.20;99.90;;;;;;5056942;28;20256;-63
2022/01/07 05:59:49;;;;;;;16.40;3.70;;;0.20;99.90;;;;;;5056905;28;20044;-61
2022/01/07 06:02:15;;;;;;;14.63;3.25;;;0.20;99.90;;;;;;5053708;28;20032;-62
2022/01/07 06:04:40;;;;;;;7.22;3.40;;;0.20;99.90;;;;;;5066817;28;20029;-62
2022/01/07 06:07:06;;;;;;;7.80;3.08;;;0.20;99.90;;;;;;5060962;28;20037;-62
2022/01/07 06:09:32;;;;;;;9.05;3.33;;;0.30;99.90;;;;;;5051331;28;20156;-62
2022/01/07 06:11:57;;;;;;;12.68;4.00;;;0.20;99.90;;;;;;5063829;28;20591;-63
2022/01/07 06:14:23;;;;;;;7.05;3.25;;;0.20;99.90;;;;;;5057324;28;20119;-62
2022/01/07 06:16:49;;;;;;;10.30;3.70;;;0.20;99.90;;;;;;5064321;28;20040;-63
2022/01/07 06:19:14;;;;;;;8.35;3.53;;;0.20;99.90;;;;;;5061427;28;20846;-64
2022/01/07 06:21:40;;;;;;;9.25;3.25;;;0.20;99.90;;;;;;5060713;28;20178;-65
2022/01/07 06:24:06;;;;;;;8.20;3.20;;;0.20;99.90;;;;;;5063035;28;20101;-63
2022/01/07 06:26:32;;;;;;;12.23;4.20;;;0.20;99.90;;;;;;5064793;28;20056;-62
2022/01/07 06:28:58;;;;;;;12.57;3.80;;;0.20;99.90;;;;;;5064005;28;20070;-64
2022/01/07 06:31:24;;;;;;;13.43;3.42;;;0.20;99.90;;;;;;5062983;28;20052;-62
2022/01/07 06:33:49;;;;;;;10.95;3.70;;;0.30;99.90;;;;;;5050228;28;20047;-64
2022/01/07 06:36:15;;;;;;;9.23;3.63;;;0.20;99.90;;;;;;5057206;28;20055;-62
2022/01/07 06:38:41;;;;;;;7.63;2.92;;;0.30;99.90;;;;;;5056671;28;20044;-62
2022/01/07 06:41:06;;;;;;;12.77;2.70;;;0.20;99.90;;;;;;5064204;28;20698;-62
2022/01/07 06:43:32;;;;;;;9.75;2.75;;;0.20;99.90;;;;;;5058091;28;20044;-63
2022/01/07 06:45:59;;;;;;;7.63;2.90;;;0.20;99.90;;;;;;5053414;28;20044;-63
2022/01/07 06:48:25;;;;;;;6.68;3.17;;;0.20;99.90;;;;;;5053007;28;20634;-63
2022/01/07 06:50:50;;;;;;;8.25;2.75;;;0.30;99.90;;;;;;5059350;28;20028;-63
2022/01/07 06:53:16;;;;;;;9.82;2.80;;;0.20;99.90;;;;;;5057176;28;20044;-62
2022/01/07 06:55:42;;;;;;;12.05;3.22;;;0.20;99.90;;;;;;5067002;28;20091;-61
2022/01/07 06:58:07;;;;;;;4.28;2.47;;;0.20;99.90;;;;;;5063680;28;20035;-61
2022/01/07 07:00:33;;;;;;;7.30;2.95;;;0.30;99.90;;;;;;5065965;28;20056;-62
2022/01/07 07:02:59;;;;;;;6.80;2.85;;;0.30;99.90;;;;;;5058421;28;20060;-63
2022/01/07 07:05:25;;;;;;;5.53;2.35;;;0.30;99.90;;;;;;5059498;28;21183;-62
2022/01/07 07:07:51;;;;;;;5.78;2.13;;;0.20;99.90;;;;;;5058869;28;20044;-61
2022/01/07 07:10:17;;;;;;;3.50;2.10;;;0.20;99.90;;;;;;5057018;28;20048;-62
2022/01/07 07:12:42;;;;;;;5.60;2.20;;;0.20;99.90;;;;;;5062558;28;20181;-63
2022/01/07 07:15:08;;;;;;;5.25;2.03;;;0.20;99.90;;;;;;5061856;28;20041;-62
2022/01/07 07:17:34;;;;;;;3.17;1.58;;;0.30;99.90;;;;;;5061474;28;20044;-63
2022/01/07 07:20:00;;;;;;;4.30;2.22;;;0.20;99.90;;;;;;5050967;28;20183;-62
2022/01/07 07:22:26;;;;;;;4.93;1.85;;;0.30;99.90;;;;;;5055149;28;20041;-62
2022/01/07 07:24:52;;;;;;;6.90;1.70;;;0.30;99.90;;;;;;5062534;28;20037;-67
2022/01/07 07:27:19;;;;;;;3.63;1.33;;;0.30;99.90;;;;;;5058338;28;20479;-62
2022/01/07 07:29:45;;;;;;;3.25;1.50;;;0.30;99.90;;;;;;5067687;28;20036;-63
2022/01/07 07:32:11;;;;;;;2.55;1.15;;;0.30;99.90;;;;;;5060742;28;20095;-67
2022/01/07 07:37:07;;;;;;;9.65;3.30;;;0.30;99.90;;;;;;5064300;28;20036;-62
2022/01/07 07:39:33;;;;;;;2.35;1.27;;;0.40;99.90;;;;;;5062991;28;20049;-62
2022/01/07 07:41:59;;;;;;;2.67;1.35;;;0.40;99.90;;;;;;5073671;28;20480;-62
2022/01/07 07:44:25;;;;;;;3.65;1.33;;;0.40;99.90;;;;;;5071380;28;20127;-61
2022/01/07 07:46:51;;;;;;;4.13;1.50;;;0.40;99.90;;;;;;5069707;28;20092;-59
2022/01/07 07:49:18;;;;;;;2.70;1.48;;;0.40;99.90;;;;;;5070334;28;20467;-64
2022/01/07 07:51:46;;;;;;;9.95;1.95;;;0.40;99.90;;;;;;5057917;28;20032;-62
2022/01/07 07:54:13;;;;;;;3.03;1.40;;;0.40;99.90;;;;;;5056470;28;20118;-62
2022/01/07 07:56:39;;;;;;;2.95;1.60;;;0.50;99.90;;;;;;5062321;28;20059;-61
2022/01/07 07:59:05;;;;;;;3.08;2.20;;;0.50;99.90;;;;;;5061687;28;20044;-62
2022/01/07 08:01:31;;;;;;;4.50;1.80;;;0.50;99.90;;;;;;5072027;28;20100;-63
2022/01/07 08:03:56;;;;;;;4.97;1.58;;;0.50;99.90;;;;;;5071963;28;20488;-63
2022/01/07 08:06:23;;;;;;;2.83;1.40;;;0.50;99.90;;;;;;5073326;28;20059;-61
2022/01/07 08:08:48;;;;;;;2.72;1.60;;;0.50;99.90;;;;;;5066173;28;20044;-62
2022/01/07 08:11:17;;;;;;;5.55;1.83;;;0.40;99.90;;;;;;5073625;28;20033;-61
2022/01/07 08:16:27;;;;;;;3.80;1.27;;;0.50;99.90;;;;;;5067145;28;20045;-61
2022/01/07 08:18:55;;;;;;;4.82;1.88;;;0.50;99.90;;;;;;5063887;28;20043;-62
2022/01/07 08:21:27;;;;;;;3.28;1.27;;;0.60;99.90;;;;;;5068820;28;20086;-62
2022/01/07 08:23:53;;;;;;;8.02;2.95;;;0.60;99.90;;;;;;5069534;28;20123;-62
2022/01/07 08:26:19;;;;;;;4.13;1.65;;;0.60;99.90;;;;;;5070121;28;20036;-61
2022/01/07 08:28:50;;;;;;;4.63;1.42;;;0.70;99.90;;;;;;5065830;28;20131;-62
2022/01/07 08:36:29;;;;;;;5.45;1.60;;;0.80;99.90;;;;;;5066906;28;20617;-61
2022/01/07 08:38:56;;;;;;;3.83;1.38;;;0.80;99.90;;;;;;5055523;28;20032;-61
2022/01/07 08:41:26;;;;;;;2.97;1.38;;;0.80;99.90;;;;;;5069443;28;20024;-62
2022/01/07 08:43:52;;;;;;;2.45;1.20;;;1.00;99.90;;;;;;5065104;28;20162;-61
2022/01/07 08:46:17;;;;;;;3.92;1.70;;;1.00;99.90;;;;;;5068818;28;20500;-61
2022/01/07 08:48:43;;;;;;;3.35;1.70;;;1.00;99.90;;;;;;5065215;28;20033;-62
2022/01/07 08:51:09;;;;;;;3.10;1.45;;;1.00;99.90;;;;;;5061652;28;20114;-62
2022/01/07 08:53:35;;;;;;;3.03;1.60;;;1.00;99.90;;;;;;5056754;28;20060;-62
2022/01/07 08:56:01;;;;;;;6.18;1.55;;;1.10;99.90;;;;;;5062993;28;20064;-63
2022/01/07 08:58:27;;;;;;;4.35;1.50;;;1.20;99.90;;;;;;5063115;28;20143;-63
2022/01/07 09:00:53;;;;;;;3.85;2.33;;;1.20;99.90;;;;;;5067977;28;20032;-62
2022/01/07 09:03:18;;;;;;;4.22;1.52;;;1.30;99.90;;;;;;5064413;28;20036;-63
2022/01/07 09:05:44;;;;;;;3.20;1.60;;;1.30;99.90;;;;;;5066069;28;20079;-63
2022/01/07 09:08:12;;;;;;;3.50;1.48;;;1.20;99.90;;;;;;5056213;28;20074;-62
2022/01/07 09:10:38;;;;;;;5.10;2.05;;;1.20;99.90;;;;;;5063288;28;20116;-63
2022/01/07 09:13:04;;;;;;;3.53;1.52;;;1.20;99.90;;;;;;5065011;28;20381;-63
2022/01/07 09:15:30;;;;;;;8.35;1.95;;;1.20;99.90;;;;;;5065492;28;20070;-62
2022/01/07 09:17:55;;;;;;;4.63;1.83;;;1.20;99.90;;;;;;5060047;28;20054;-62
2022/01/07 09:20:21;;;;;;;2.70;1.98;;;1.20;99.90;;;;;;5068874;28;20037;-63
2022/01/07 09:22:48;;;;;;;3.30;1.92;;;1.30;99.90;;;;;;5063977;28;20032;-63
2022/01/07 09:25:15;;;;;;;5.35;1.40;;;1.20;99.90;;;;;;5068965;28;20040;-63
2022/01/07 09:27:41;;;;;;;2.28;1.50;;;1.30;99.90;;;;;;5066277;28;20098;-63
2022/01/07 09:30:11;;;;;;;3.80;1.83;;;1.30;99.90;;;;;;5067928;28;20063;-63
2022/01/07 09:32:37;;;;;;;2.38;1.40;;;1.40;99.90;;;;;;5061299;28;20048;-62
2022/01/07 09:35:04;;;;;;;2.70;1.80;;;1.60;99.90;;;;;;5064962;28;20047;-62
2022/01/07 09:37:30;;;;;;;4.10;1.98;;;1.60;99.90;;;;;;5059995;28;20076;-62
2022/01/07 09:39:56;;;;;;;3.25;1.42;;;1.70;99.90;;;;;;5059045;28;20043;-63
2022/01/07 09:42:22;;;;;;;2.50;1.50;;;1.70;99.90;;;;;;5062827;28;20044;-61
2022/01/07 09:44:48;;;;;;;6.43;1.63;;;1.60;99.90;;;;;;5052128;28;20132;-63
2022/01/07 09:47:14;;;;;;;4.68;1.75;;;1.50;99.90;;;;;;5063149;28;20049;-63
2022/01/07 09:49:41;;;;;;;4.20;1.85;;;1.40;99.90;;;;;;5067005;28;20029;-63
2022/01/07 09:52:08;;;;;;;3.30;1.65;;;1.40;99.90;;;;;;5063149;28;20127;-62
2022/01/07 09:54:38;;;;;;;5.00;2.03;;;1.40;99.90;;;;;;5063657;28;20068;-63
2022/01/07 09:57:06;;;;;;;8.30;1.75;;;1.40;99.90;;;;;;5065903;28;20492;-63
2022/01/07 09:59:35;;;;;;;3.92;1.92;;;1.40;99.90;;;;;;5058209;28;20059;-63
2022/01/07 10:02:05;;;;;;;4.47;1.67;;;1.40;99.90;;;;;;5050480;28;20501;-66
2022/01/07 10:04:37;;;;;;;5.30;2.00;;;1.40;99.90;;;;;;5060642;28;20773;-63
2022/01/07 10:07:16;;;;;;;3.55;1.73;;;1.50;99.90;;;;;;5067613;28;20033;-63
2022/01/07 10:09:58;;;;;;;3.75;1.90;;;1.60;99.90;;;;;;5065808;22;20049;-64
2022/01/07 10:12:26;;;;;;;2.60;1.40;;;1.70;99.90;;;;;;5035947;28;20110;-62
2022/01/07 10:15:15;;;;;;;4.82;1.70;;;1.80;99.90;;;;;;5038863;28;20033;-63
2022/01/07 10:17:53;;;;;;;2.60;1.25;;;1.90;99.90;;;;;;5004424;28;20057;-63
2022/01/07 10:20:42;;;;;;;3.33;1.70;;;1.90;99.90;;;;;;4997582;28;20121;-62
2022/01/07 10:23:09;;;;;;;2.40;1.52;;;1.80;99.90;;;;;;4989362;28;20116;-62
2022/01/07 10:25:37;;;;;;;3.92;1.52;;;1.90;99.90;;;;;;5000148;28;20049;-63
2022/01/07 10:28:15;;;;;;;10.07;1.88;;;1.90;99.90;;;;;;4991418;28;20041;-62
2022/01/07 10:30:42;;;;;;;2.50;1.55;;;1.80;99.90;;;;;;4999173;28;20129;-63
2022/01/07 10:33:20;;;;;;;5.35;1.65;;;1.80;99.90;;;;;;4994866;28;20183;-63
2022/01/07 10:35:49;;;;;;;3.70;1.50;;;1.80;99.90;;;;;;4986169;28;20466;-63
2022/01/07 10:38:26;;;;;;;3.45;1.60;;;1.80;99.90;;;;;;4986992;28;20061;-62
2022/01/07 10:40:54;;;;;;;3.08;1.55;;;1.80;99.90;;;;;;4976631;28;20034;-63
2022/01/07 10:43:21;;;;;;;5.53;1.80;;;1.80;99.90;;;;;;4981882;28;20506;-63
2022/01/07 10:45:48;;;;;;;2.88;1.60;;;1.80;99.90;;;;;;4992530;28;20064;-63
2022/01/07 10:48:14;;;;;;;2.83;1.48;;;1.90;99.90;;;;;;5006796;28;20128;-63
2022/01/07 10:50:48;;;;;;;4.95;1.67;;;2.00;99.90;;;;;;5006990;28;20043;-63
2022/01/07 10:53:17;;;;;;;2.10;1.55;;;2.10;99.90;;;;;;5007671;28;20065;-63
2022/01/07 10:56:07;;;;;;;2.97;1.23;;;2.20;99.90;;;;;;5018323;28;20116;-64
2022/01/07 10:58:55;;;;;;;3.88;1.40;;;2.40;99.90;;;;;;5011540;28;20037;-63
2022/01/07 11:01:21;;;;;;;3.50;1.23;;;2.50;99.90;;;;;;5001947;28;20114;-63
2022/01/07 11:03:48;;;;;;;1.35;0.90;;;2.50;99.90;;;;;;4992191;28;20122;-63
2022/01/07 11:06:14;;;;;;;2.17;1.05;;;2.60;99.90;;;;;;4989761;28;20490;-63
2022/01/07 11:08:41;;;;;;;5.45;1.35;;;2.50;99.90;;;;;;4988702;28;20053;-63
2022/01/07 11:11:10;;;;;;;1.95;1.38;;;2.50;99.90;;;;;;4992363;28;20125;-63
2022/01/07 11:13:37;;;;;;;2.10;1.33;;;2.40;99.90;;;;;;4988271;28;20046;-62
2022/01/07 11:16:03;;;;;;;1.88;1.20;;;2.40;99.90;;;;;;4995397;28;20053;-63
2022/01/07 11:18:29;;;;;;;4.20;1.63;;;2.20;99.90;;;;;;4990716;28;20042;-63
2022/01/07 11:20:58;;;;;;;2.35;1.20;;;2.20;99.90;;;;;;4988606;28;20606;-63
2022/01/07 11:23:28;;;;;;;2.63;1.15;;;2.20;99.90;;;;;;4988948;28;20661;-62
2022/01/07 11:26:07;;;;;;;2.58;1.10;;;2.20;99.90;;;;;;4989751;28;20038;-63
2022/01/07 11:28:34;;;;;;;2.85;1.48;;;2.20;99.90;;;;;;4989580;28;20043;-62
2022/01/07 11:31:11;;;;;;;2.80;1.10;;;2.30;99.90;;;;;;4991766;28;20034;-62
2022/01/07 11:33:37;;;;;;;2.42;1.25;;;2.30;99.90;;;;;;4989425;28;20395;-63
2022/01/07 11:36:03;;;;;;;3.50;1.60;;;2.40;99.90;;;;;;4996415;28;20042;-63
2022/01/07 11:38:34;;;;;;;3.53;1.50;;;2.50;99.90;;;;;;4987217;28;20073;-61
2022/01/07 11:41:00;;;;;;;2.67;1.42;;;2.60;99.90;;;;;;4992828;28;20054;-63
2022/01/07 11:43:35;;;;;;;4.20;1.20;;;2.50;99.90;;;;;;4985687;28;20089;-61
2022/01/07 11:46:20;;;;;;;2.53;1.30;;;2.60;99.90;;;;;;4994937;28;20541;-62
2022/01/07 11:48:46;;;;;;;3.10;1.48;;;2.50;99.90;;;;;;4993812;28;20061;-60
2022/01/07 11:51:14;;;;;;;2.95;1.63;;;2.60;99.90;;;;;;4997171;28;20034;-60
2022/01/07 11:53:39;;;;;;;2.95;1.33;;;2.50;99.90;;;;;;4987790;28;20510;-62
2022/01/07 11:56:10;;;;;;;2.55;1.30;;;2.50;99.90;;;;;;4994234;28;20049;-60
2022/01/07 11:58:41;;;;;;;4.47;1.20;;;2.50;99.90;;;;;;4991250;28;20045;-61
2022/01/07 12:01:07;;;;;;;3.25;1.30;;;2.50;99.90;;;;;;4993073;28;20518;-62
2022/01/07 12:03:43;;;;;;;4.32;1.10;;;2.60;99.90;;;;;;4986823;28;20035;-62
2022/01/07 12:06:24;;;;;;;;;;;2.50;99.90;;;;;;4991133;28;20042;-61
2022/01/07 12:08:58;;;;;;;5.38;1.33;;;2.50;99.90;;;;;;4986624;28;19925;-61
2022/01/07 12:11:37;;;;;;;4.32;1.33;;;2.40;99.90;;;;;;4991880;28;20049;-61
2022/01/07 12:14:15;;;;;;;6.47;1.60;;;2.30;99.90;;;;;;4989600;28;20125;-64
2022/01/07 12:16:44;;;;;;;3.20;1.60;;;2.40;99.90;;;;;;4996736;28;20073;-60
2022/01/07 12:19:19;;;;;;;6.30;1.60;;;2.30;99.90;;;;;;4989723;28;20050;-65
2022/01/07 12:21:46;;;;;;;10.27;4.05;;;2.30;99.90;;;;;;4994539;28;20038;-62
2022/01/07 12:24:14;;;;;;;6.35;1.90;;;2.40;99.90;;;;;;4988002;28;20050;-63
2022/01/07 12:26:40;;;;;;;6.07;1.80;;;2.40;99.90;;;;;;4988576;28;20038;-63
2022/01/07 12:29:15;;;;;;;4.97;2.05;;;2.40;99.90;;;;;;4988361;28;20073;-62
2022/01/07 12:31:52;;;;;;;6.38;2.53;;;2.40;99.90;;;;;;5004805;28;20343;-63
2022/01/07 12:34:26;;;;;;;3.05;1.55;;;2.40;99.90;;;;;;5008861;28;20444;-62
2022/01/07 12:37:03;;;;;;;3.78;2.00;;;2.30;99.90;;;;;;5002453;28;20100;-61
2022/01/07 12:39:38;;;;;;;6.43;2.63;;;2.30;99.90;;;;;;5017185;28;20050;-63
2022/01/07 12:42:06;;;;;;;9.85;2.75;;;2.30;99.90;;;;;;5009428;28;20044;-62
2022/01/07 12:44:39;;;;;;;8.88;4.18;;;2.30;99.90;;;;;;5006733;28;20103;-61
2022/01/07 12:47:06;;;;;;;3.80;2.10;;;2.30;99.90;;;;;;5010555;28;20037;-62
2022/01/07 12:49:36;;;;;;;4.40;2.40;;;2.30;99.90;;;;;;5009454;28;20088;-63
2022/01/07 12:52:08;;;;;;;7.90;2.60;;;2.30;99.90;;;;;;5011697;28;20875;-62
2022/01/07 12:54:34;;;;;;;3.95;2.10;;;2.30;99.90;;;;;;5005741;28;20045;-66
2022/01/07 12:57:00;;;;;;;7.15;2.55;;;2.40;99.90;;;;;;5005037;28;20555;-64
2022/01/07 12:59:29;;;;;;;7.00;2.17;;;2.40;99.90;;;;;;5008414;28;20042;-64
2022/01/07 13:01:55;;;;;;;4.95;2.00;;;2.40;99.90;;;;;;4997800;28;20053;-62
2022/01/07 13:04:23;;;;;;;4.55;1.90;;;2.40;99.90;;;;;;5017023;28;20045;-63
2022/01/07 13:06:50;;;;;;;5.05;2.00;;;2.40;99.90;;;;;;5014145;28;20044;-63